sensor_id;sensor_type;location;lat;lon;timestamp;P1;durP1;ratioP1;P2;durP2;ratioP2
70545;SDS011;58098;51.680;5.134;2023-08-08T00:01:41;9.97;;;3.50;;
70545;SDS011;58098;51.680;5.134;2023-08-08T00:04:08;8.88;;;4.00;;
70545;SDS011;58098;51.680;5.134;2023-08-08T00:06:34;9.73;;;3.60;;
70545;SDS011;58098;51.680;5.134;2023-08-08T00:09:00;8.00;;;3.67;;
70545;SDS011;58098;51.680;5.134;2023-08-08T00:11:26;8.60;;;3.60;;
70545;SDS011;58098;51.680;5.134;2023-08-08T00:13:52;9.37;;;3.70;;
70545;SDS011;58098;51.680;5.134;2023-08-08T00:16:17;8.48;;;3.90;;
70545;SDS011;58098;51.680;5.134;2023-08-08T00:18:42;6.60;;;3.40;;
70545;SDS011;58098;51.680;5.134;2023-08-08T00:21:08;9.93;;;4.57;;
70545;SDS011;58098;51.680;5.134;2023-08-08T00:23:33;10.37;;;3.33;;
70545;SDS011;58098;51.680;5.134;2023-08-08T00:25:59;6.43;;;3.17;;
70545;SDS011;58098;51.680;5.134;2023-08-08T00:28:24;10.63;;;3.55;;
70545;SDS011;58098;51.680;5.134;2023-08-08T00:30:49;7.77;;;3.53;;
70545;SDS011;58098;51.680;5.134;2023-08-08T00:33:15;8.37;;;3.50;;
70545;SDS011;58098;51.680;5.134;2023-08-08T00:35:41;9.15;;;3.63;;
70545;SDS011;58098;51.680;5.134;2023-08-08T00:38:06;7.57;;;3.00;;
70545;SDS011;58098;51.680;5.134;2023-08-08T00:40:31;10.40;;;4.20;;
70545;SDS011;58098;51.680;5.134;2023-08-08T00:42:57;9.97;;;3.50;;
70545;SDS011;58098;51.680;5.134;2023-08-08T00:45:22;11.20;;;3.70;;
70545;SDS011;58098;51.680;5.134;2023-08-08T00:47:48;11.07;;;3.33;;
70545;SDS011;58098;51.680;5.134;2023-08-08T00:50:14;8.73;;;3.90;;
70545;SDS011;58098;51.680;5.134;2023-08-08T00:52:40;8.43;;;3.90;;
70545;SDS011;58098;51.680;5.134;2023-08-08T00:55:07;13.32;;;4.00;;
70545;SDS011;58098;51.680;5.134;2023-08-08T00:57:33;12.68;;;4.30;;
70545;SDS011;58098;51.680;5.134;2023-08-08T01:00:00;14.70;;;4.17;;
70545;SDS011;58098;51.680;5.134;2023-08-08T01:02:26;12.25;;;4.03;;
70545;SDS011;58098;51.680;5.134;2023-08-08T01:04:51;14.57;;;4.27;;
70545;SDS011;58098;51.680;5.134;2023-08-08T01:09:57;11.48;;;4.93;;
70545;SDS011;58098;51.680;5.134;2023-08-08T01:12:29;10.82;;;4.95;;
70545;SDS011;58098;51.680;5.134;2023-08-08T01:14:55;15.10;;;5.20;;
70545;SDS011;58098;51.680;5.134;2023-08-08T01:17:21;13.63;;;4.23;;
70545;SDS011;58098;51.680;5.134;2023-08-08T01:19:47;12.07;;;5.15;;
70545;SDS011;58098;51.680;5.134;2023-08-08T01:22:23;11.17;;;5.40;;
70545;SDS011;58098;51.680;5.134;2023-08-08T01:24:54;14.18;;;4.82;;
70545;SDS011;58098;51.680;5.134;2023-08-08T01:27:21;12.65;;;5.10;;
70545;SDS011;58098;51.680;5.134;2023-08-08T01:29:47;15.60;;;5.43;;
70545;SDS011;58098;51.680;5.134;2023-08-08T01:32:12;16.97;;;5.37;;
70545;SDS011;58098;51.680;5.134;2023-08-08T01:34:37;13.83;;;5.50;;
70545;SDS011;58098;51.680;5.134;2023-08-08T01:37:11;13.17;;;4.97;;
70545;SDS011;58098;51.680;5.134;2023-08-08T01:39:42;16.55;;;5.20;;
70545;SDS011;58098;51.680;5.134;2023-08-08T01:42:10;13.30;;;4.95;;
70545;SDS011;58098;51.680;5.134;2023-08-08T01:44:37;11.93;;;4.97;;
70545;SDS011;58098;51.680;5.134;2023-08-08T01:47:04;11.60;;;5.47;;
70545;SDS011;58098;51.680;5.134;2023-08-08T01:49:30;14.63;;;5.40;;
70545;SDS011;58098;51.680;5.134;2023-08-08T01:51:56;14.83;;;5.47;;
70545;SDS011;58098;51.680;5.134;2023-08-08T01:54:21;16.77;;;5.00;;
70545;SDS011;58098;51.680;5.134;2023-08-08T01:56:46;16.20;;;5.13;;
70545;SDS011;58098;51.680;5.134;2023-08-08T01:59:12;14.57;;;5.30;;
70545;SDS011;58098;51.680;5.134;2023-08-08T02:01:37;11.97;;;5.33;;
70545;SDS011;58098;51.680;5.134;2023-08-08T02:04:02;13.70;;;4.60;;
70545;SDS011;58098;51.680;5.134;2023-08-08T02:06:28;19.10;;;5.70;;
70545;SDS011;58098;51.680;5.134;2023-08-08T02:08:53;20.83;;;5.97;;
70545;SDS011;58098;51.680;5.134;2023-08-08T02:11:18;15.43;;;5.70;;
70545;SDS011;58098;51.680;5.134;2023-08-08T02:13:44;13.27;;;5.20;;
70545;SDS011;58098;51.680;5.134;2023-08-08T02:16:09;16.23;;;5.00;;
70545;SDS011;58098;51.680;5.134;2023-08-08T02:18:34;15.40;;;5.77;;
70545;SDS011;58098;51.680;5.134;2023-08-08T02:21:05;14.63;;;5.75;;
70545;SDS011;58098;51.680;5.134;2023-08-08T02:23:30;17.27;;;6.23;;
70545;SDS011;58098;51.680;5.134;2023-08-08T02:25:56;15.70;;;6.17;;
70545;SDS011;58098;51.680;5.134;2023-08-08T02:28:21;16.40;;;5.63;;
70545;SDS011;58098;51.680;5.134;2023-08-08T02:30:46;14.57;;;6.00;;
70545;SDS011;58098;51.680;5.134;2023-08-08T02:33:12;14.90;;;5.88;;
70545;SDS011;58098;51.680;5.134;2023-08-08T02:35:37;16.90;;;5.97;;
70545;SDS011;58098;51.680;5.134;2023-08-08T02:38:03;21.57;;;5.73;;
70545;SDS011;58098;51.680;5.134;2023-08-08T02:40:28;18.17;;;5.43;;
70545;SDS011;58098;51.680;5.134;2023-08-08T02:42:53;18.93;;;6.43;;
70545;SDS011;58098;51.680;5.134;2023-08-08T02:45:19;21.02;;;6.00;;
70545;SDS011;58098;51.680;5.134;2023-08-08T02:47:44;15.80;;;5.93;;
70545;SDS011;58098;51.680;5.134;2023-08-08T02:50:09;20.57;;;5.97;;
70545;SDS011;58098;51.680;5.134;2023-08-08T02:52:35;21.03;;;6.20;;
70545;SDS011;58098;51.680;5.134;2023-08-08T02:55:00;16.73;;;6.07;;
70545;SDS011;58098;51.680;5.134;2023-08-08T02:57:27;17.40;;;6.20;;
70545;SDS011;58098;51.680;5.134;2023-08-08T02:59:52;17.40;;;6.10;;
70545;SDS011;58098;51.680;5.134;2023-08-08T03:02:18;20.67;;;6.73;;
70545;SDS011;58098;51.680;5.134;2023-08-08T03:04:43;20.50;;;7.70;;
70545;SDS011;58098;51.680;5.134;2023-08-08T03:07:08;22.53;;;7.23;;
70545;SDS011;58098;51.680;5.134;2023-08-08T03:09:34;21.90;;;7.27;;
70545;SDS011;58098;51.680;5.134;2023-08-08T03:11:59;21.63;;;7.17;;
70545;SDS011;58098;51.680;5.134;2023-08-08T03:14:24;22.07;;;7.63;;
70545;SDS011;58098;51.680;5.134;2023-08-08T03:16:50;24.13;;;7.67;;
70545;SDS011;58098;51.680;5.134;2023-08-08T03:19:15;28.77;;;8.20;;
70545;SDS011;58098;51.680;5.134;2023-08-08T03:21:40;23.47;;;8.77;;
70545;SDS011;58098;51.680;5.134;2023-08-08T03:24:06;23.43;;;8.67;;
70545;SDS011;58098;51.680;5.134;2023-08-08T03:26:31;32.35;;;7.63;;
70545;SDS011;58098;51.680;5.134;2023-08-08T03:28:56;22.33;;;8.07;;
70545;SDS011;58098;51.680;5.134;2023-08-08T03:31:22;23.70;;;8.07;;
70545;SDS011;58098;51.680;5.134;2023-08-08T03:33:47;24.87;;;8.03;;
70545;SDS011;58098;51.680;5.134;2023-08-08T03:36:13;29.93;;;8.10;;
70545;SDS011;58098;51.680;5.134;2023-08-08T03:38:38;28.42;;;8.38;;
70545;SDS011;58098;51.680;5.134;2023-08-08T03:41:05;27.53;;;8.63;;
70545;SDS011;58098;51.680;5.134;2023-08-08T03:43:31;22.40;;;8.73;;
70545;SDS011;58098;51.680;5.134;2023-08-08T03:45:56;23.93;;;8.77;;
70545;SDS011;58098;51.680;5.134;2023-08-08T03:48:21;21.57;;;7.87;;
70545;SDS011;58098;51.680;5.134;2023-08-08T03:50:47;30.67;;;8.73;;
70545;SDS011;58098;51.680;5.134;2023-08-08T03:53:12;31.38;;;8.75;;
70545;SDS011;58098;51.680;5.134;2023-08-08T03:55:38;27.43;;;8.17;;
70545;SDS011;58098;51.680;5.134;2023-08-08T03:58:03;31.40;;;9.00;;
70545;SDS011;58098;51.680;5.134;2023-08-08T04:00:30;30.67;;;9.32;;
70545;SDS011;58098;51.680;5.134;2023-08-08T04:02:56;30.33;;;9.17;;
70545;SDS011;58098;51.680;5.134;2023-08-08T04:05:21;31.48;;;9.25;;
70545;SDS011;58098;51.680;5.134;2023-08-08T04:07:46;25.30;;;9.67;;
70545;SDS011;58098;51.680;5.134;2023-08-08T04:10:12;31.50;;;10.70;;
70545;SDS011;58098;51.680;5.134;2023-08-08T04:12:38;30.27;;;10.18;;
70545;SDS011;58098;51.680;5.134;2023-08-08T04:15:03;31.40;;;10.83;;
70545;SDS011;58098;51.680;5.134;2023-08-08T04:17:29;30.17;;;10.63;;
70545;SDS011;58098;51.680;5.134;2023-08-08T04:19:54;33.00;;;10.37;;
70545;SDS011;58098;51.680;5.134;2023-08-08T04:22:19;34.80;;;10.93;;
70545;SDS011;58098;51.680;5.134;2023-08-08T04:24:45;32.83;;;10.73;;
70545;SDS011;58098;51.680;5.134;2023-08-08T04:27:10;27.17;;;11.47;;
70545;SDS011;58098;51.680;5.134;2023-08-08T04:29:36;38.37;;;12.23;;
70545;SDS011;58098;51.680;5.134;2023-08-08T04:32:01;32.40;;;11.30;;
70545;SDS011;58098;51.680;5.134;2023-08-08T04:34:26;31.08;;;11.65;;
70545;SDS011;58098;51.680;5.134;2023-08-08T04:36:52;33.23;;;11.83;;
70545;SDS011;58098;51.680;5.134;2023-08-08T04:39:17;35.33;;;10.70;;
70545;SDS011;58098;51.680;5.134;2023-08-08T04:41:42;29.43;;;11.40;;
70545;SDS011;58098;51.680;5.134;2023-08-08T04:44:08;31.97;;;11.47;;
70545;SDS011;58098;51.680;5.134;2023-08-08T04:46:33;33.10;;;11.30;;
70545;SDS011;58098;51.680;5.134;2023-08-08T04:48:58;28.90;;;10.57;;
70545;SDS011;58098;51.680;5.134;2023-08-08T04:51:24;34.37;;;11.17;;
70545;SDS011;58098;51.680;5.134;2023-08-08T04:53:49;32.20;;;10.77;;
70545;SDS011;58098;51.680;5.134;2023-08-08T04:56:14;27.30;;;10.13;;
70545;SDS011;58098;51.680;5.134;2023-08-08T04:58:40;25.83;;;9.70;;
70545;SDS011;58098;51.680;5.134;2023-08-08T05:01:05;30.10;;;9.80;;
70545;SDS011;58098;51.680;5.134;2023-08-08T05:03:30;28.97;;;9.93;;
70545;SDS011;58098;51.680;5.134;2023-08-08T05:05:56;26.87;;;10.90;;
70545;SDS011;58098;51.680;5.134;2023-08-08T05:08:21;26.63;;;10.33;;
70545;SDS011;58098;51.680;5.134;2023-08-08T05:10:46;31.10;;;10.77;;
70545;SDS011;58098;51.680;5.134;2023-08-08T05:13:12;31.00;;;11.47;;
70545;SDS011;58098;51.680;5.134;2023-08-08T05:15:37;31.23;;;11.00;;
70545;SDS011;58098;51.680;5.134;2023-08-08T05:18:03;25.97;;;9.97;;
70545;SDS011;58098;51.680;5.134;2023-08-08T05:20:28;28.50;;;9.75;;
70545;SDS011;58098;51.680;5.134;2023-08-08T05:22:54;25.53;;;10.50;;
70545;SDS011;58098;51.680;5.134;2023-08-08T05:25:19;33.73;;;9.83;;
70545;SDS011;58098;51.680;5.134;2023-08-08T05:27:44;25.07;;;9.47;;
70545;SDS011;58098;51.680;5.134;2023-08-08T05:30:10;24.53;;;9.30;;
70545;SDS011;58098;51.680;5.134;2023-08-08T05:32:35;26.07;;;9.10;;
70545;SDS011;58098;51.680;5.134;2023-08-08T05:35:01;27.53;;;9.10;;
70545;SDS011;58098;51.680;5.134;2023-08-08T05:37:29;26.27;;;8.90;;
70545;SDS011;58098;51.680;5.134;2023-08-08T05:39:54;25.30;;;9.10;;
70545;SDS011;58098;51.680;5.134;2023-08-08T05:42:19;27.05;;;8.88;;
70545;SDS011;58098;51.680;5.134;2023-08-08T05:44:45;25.03;;;8.70;;
70545;SDS011;58098;51.680;5.134;2023-08-08T05:47:10;20.67;;;8.63;;
70545;SDS011;58098;51.680;5.134;2023-08-08T05:49:36;22.83;;;8.63;;
70545;SDS011;58098;51.680;5.134;2023-08-08T05:52:03;27.15;;;8.30;;
70545;SDS011;58098;51.680;5.134;2023-08-08T05:54:28;21.17;;;7.85;;
70545;SDS011;58098;51.680;5.134;2023-08-08T05:56:54;22.47;;;7.90;;
70545;SDS011;58098;51.680;5.134;2023-08-08T05:59:19;18.93;;;7.47;;
70545;SDS011;58098;51.680;5.134;2023-08-08T06:01:45;21.70;;;8.13;;
70545;SDS011;58098;51.680;5.134;2023-08-08T06:04:11;23.83;;;7.50;;
70545;SDS011;58098;51.680;5.134;2023-08-08T06:06:36;16.92;;;6.82;;
70545;SDS011;58098;51.680;5.134;2023-08-08T06:09:02;17.47;;;7.00;;
70545;SDS011;58098;51.680;5.134;2023-08-08T06:11:28;18.60;;;7.40;;
70545;SDS011;58098;51.680;5.134;2023-08-08T06:13:53;18.33;;;6.25;;
70545;SDS011;58098;51.680;5.134;2023-08-08T06:16:19;21.53;;;6.83;;
70545;SDS011;58098;51.680;5.134;2023-08-08T06:18:45;19.55;;;5.95;;
70545;SDS011;58098;51.680;5.134;2023-08-08T06:21:10;18.37;;;6.70;;
70545;SDS011;58098;51.680;5.134;2023-08-08T06:23:36;13.88;;;5.85;;
70545;SDS011;58098;51.680;5.134;2023-08-08T06:26:01;15.40;;;5.90;;
70545;SDS011;58098;51.680;5.134;2023-08-08T06:28:27;12.73;;;6.03;;
70545;SDS011;58098;51.680;5.134;2023-08-08T06:30:52;13.73;;;6.00;;
70545;SDS011;58098;51.680;5.134;2023-08-08T06:33:18;12.97;;;5.03;;
70545;SDS011;58098;51.680;5.134;2023-08-08T06:35:44;11.70;;;5.70;;
70545;SDS011;58098;51.680;5.134;2023-08-08T06:38:09;18.67;;;5.70;;
70545;SDS011;58098;51.680;5.134;2023-08-08T06:40:34;12.83;;;5.90;;
70545;SDS011;58098;51.680;5.134;2023-08-08T06:43:00;10.93;;;4.75;;
70545;SDS011;58098;51.680;5.134;2023-08-08T06:45:25;10.97;;;4.70;;
70545;SDS011;58098;51.680;5.134;2023-08-08T06:47:50;12.13;;;5.03;;
70545;SDS011;58098;51.680;5.134;2023-08-08T06:50:16;12.87;;;5.30;;
70545;SDS011;58098;51.680;5.134;2023-08-08T06:52:42;15.47;;;4.80;;
70545;SDS011;58098;51.680;5.134;2023-08-08T06:55:07;11.77;;;4.47;;
70545;SDS011;58098;51.680;5.134;2023-08-08T06:57:33;11.23;;;4.32;;
70545;SDS011;58098;51.680;5.134;2023-08-08T06:59:59;9.15;;;4.70;;
70545;SDS011;58098;51.680;5.134;2023-08-08T07:02:25;10.33;;;4.10;;
70545;SDS011;58098;51.680;5.134;2023-08-08T07:04:50;13.53;;;4.07;;
70545;SDS011;58098;51.680;5.134;2023-08-08T07:07:16;10.30;;;4.10;;
70545;SDS011;58098;51.680;5.134;2023-08-08T07:09:42;9.43;;;4.00;;
70545;SDS011;58098;51.680;5.134;2023-08-08T07:12:07;11.60;;;4.10;;
70545;SDS011;58098;51.680;5.134;2023-08-08T07:14:33;11.77;;;4.38;;
70545;SDS011;58098;51.680;5.134;2023-08-08T07:16:58;12.73;;;4.03;;
70545;SDS011;58098;51.680;5.134;2023-08-08T07:19:24;10.40;;;4.07;;
70545;SDS011;58098;51.680;5.134;2023-08-08T07:21:50;8.27;;;4.00;;
70545;SDS011;58098;51.680;5.134;2023-08-08T07:24:15;9.53;;;3.80;;
70545;SDS011;58098;51.680;5.134;2023-08-08T07:26:41;9.63;;;3.60;;
70545;SDS011;58098;51.680;5.134;2023-08-08T07:29:07;10.93;;;3.50;;
70545;SDS011;58098;51.680;5.134;2023-08-08T07:31:32;8.65;;;3.03;;
70545;SDS011;58098;51.680;5.134;2023-08-08T07:33:58;7.13;;;3.00;;
70545;SDS011;58098;51.680;5.134;2023-08-08T07:36:23;11.13;;;3.30;;
70545;SDS011;58098;51.680;5.134;2023-08-08T07:38:49;10.23;;;2.97;;
70545;SDS011;58098;51.680;5.134;2023-08-08T07:41:14;6.73;;;2.70;;
70545;SDS011;58098;51.680;5.134;2023-08-08T07:43:40;9.13;;;3.10;;
70545;SDS011;58098;51.680;5.134;2023-08-08T07:46:05;9.67;;;2.63;;
70545;SDS011;58098;51.680;5.134;2023-08-08T07:48:30;10.30;;;2.57;;
70545;SDS011;58098;51.680;5.134;2023-08-08T07:50:56;7.82;;;2.65;;
70545;SDS011;58098;51.680;5.134;2023-08-08T07:53:21;6.27;;;2.50;;
70545;SDS011;58098;51.680;5.134;2023-08-08T07:55:46;5.63;;;2.43;;
70545;SDS011;58098;51.680;5.134;2023-08-08T07:58:12;6.77;;;2.37;;
70545;SDS011;58098;51.680;5.134;2023-08-08T08:00:37;5.90;;;2.10;;
70545;SDS011;58098;51.680;5.134;2023-08-08T08:03:03;6.28;;;2.22;;
70545;SDS011;58098;51.680;5.134;2023-08-08T08:05:29;3.73;;;1.93;;
70545;SDS011;58098;51.680;5.134;2023-08-08T08:07:54;9.63;;;2.08;;
70545;SDS011;58098;51.680;5.134;2023-08-08T08:10:20;5.73;;;1.87;;
70545;SDS011;58098;51.680;5.134;2023-08-08T08:12:45;4.60;;;2.00;;
70545;SDS011;58098;51.680;5.134;2023-08-08T08:15:11;6.50;;;2.23;;
70545;SDS011;58098;51.680;5.134;2023-08-08T08:17:36;6.33;;;2.00;;
70545;SDS011;58098;51.680;5.134;2023-08-08T08:20:02;3.60;;;1.75;;
70545;SDS011;58098;51.680;5.134;2023-08-08T08:22:35;3.75;;;1.92;;
70545;SDS011;58098;51.680;5.134;2023-08-08T08:25:02;3.50;;;1.83;;
70545;SDS011;58098;51.680;5.134;2023-08-08T08:27:27;4.68;;;1.95;;
70545;SDS011;58098;51.680;5.134;2023-08-08T08:29:53;5.90;;;2.03;;
70545;SDS011;58098;51.680;5.134;2023-08-08T08:32:18;5.87;;;2.10;;
70545;SDS011;58098;51.680;5.134;2023-08-08T08:34:43;5.07;;;1.77;;
70545;SDS011;58098;51.680;5.134;2023-08-08T08:37:09;3.90;;;1.70;;
70545;SDS011;58098;51.680;5.134;2023-08-08T08:39:34;7.30;;;1.80;;
70545;SDS011;58098;51.680;5.134;2023-08-08T08:42:00;5.10;;;1.80;;
70545;SDS011;58098;51.680;5.134;2023-08-08T08:44:30;5.00;;;1.90;;
70545;SDS011;58098;51.680;5.134;2023-08-08T08:46:59;4.07;;;1.80;;
70545;SDS011;58098;51.680;5.134;2023-08-08T08:49:29;5.23;;;1.60;;
70545;SDS011;58098;51.680;5.134;2023-08-08T08:51:56;4.20;;;2.05;;
70545;SDS011;58098;51.680;5.134;2023-08-08T08:54:22;6.28;;;2.00;;
70545;SDS011;58098;51.680;5.134;2023-08-08T08:56:49;2.55;;;1.80;;
70545;SDS011;58098;51.680;5.134;2023-08-08T08:59:15;3.28;;;1.70;;
70545;SDS011;58098;51.680;5.134;2023-08-08T09:01:40;4.07;;;1.80;;
70545;SDS011;58098;51.680;5.134;2023-08-08T09:04:06;3.93;;;1.80;;
70545;SDS011;58098;51.680;5.134;2023-08-08T09:06:33;3.83;;;1.50;;
70545;SDS011;58098;51.680;5.134;2023-08-08T09:08:58;7.30;;;1.90;;
70545;SDS011;58098;51.680;5.134;2023-08-08T09:11:24;3.73;;;1.90;;
70545;SDS011;58098;51.680;5.134;2023-08-08T09:13:50;5.57;;;1.67;;
70545;SDS011;58098;51.680;5.134;2023-08-08T09:16:16;5.45;;;1.85;;
70545;SDS011;58098;51.680;5.134;2023-08-08T09:18:41;4.90;;;2.20;;
70545;SDS011;58098;51.680;5.134;2023-08-08T09:21:07;5.47;;;1.70;;
70545;SDS011;58098;51.680;5.134;2023-08-08T09:23:33;4.37;;;2.00;;
70545;SDS011;58098;51.680;5.134;2023-08-08T09:25:58;4.43;;;2.17;;
70545;SDS011;58098;51.680;5.134;2023-08-08T09:28:24;4.23;;;1.83;;
70545;SDS011;58098;51.680;5.134;2023-08-08T09:30:49;7.75;;;2.30;;
70545;SDS011;58098;51.680;5.134;2023-08-08T09:33:16;5.67;;;1.80;;
70545;SDS011;58098;51.680;5.134;2023-08-08T09:35:42;4.93;;;2.20;;
70545;SDS011;58098;51.680;5.134;2023-08-08T09:38:08;3.63;;;2.10;;
70545;SDS011;58098;51.680;5.134;2023-08-08T09:40:33;3.37;;;1.50;;
70545;SDS011;58098;51.680;5.134;2023-08-08T09:42:59;2.03;;;1.27;;
70545;SDS011;58098;51.680;5.134;2023-08-08T09:45:24;4.57;;;1.83;;
70545;SDS011;58098;51.680;5.134;2023-08-08T09:47:50;3.90;;;1.88;;
70545;SDS011;58098;51.680;5.134;2023-08-08T09:50:17;5.30;;;2.00;;
70545;SDS011;58098;51.680;5.134;2023-08-08T09:52:43;4.40;;;1.77;;
70545;SDS011;58098;51.680;5.134;2023-08-08T09:55:09;2.88;;;1.73;;
70545;SDS011;58098;51.680;5.134;2023-08-08T09:57:37;6.20;;;2.27;;
70545;SDS011;58098;51.680;5.134;2023-08-08T10:00:04;3.78;;;1.83;;
70545;SDS011;58098;51.680;5.134;2023-08-08T10:02:32;2.63;;;1.48;;
70545;SDS011;58098;51.680;5.134;2023-08-08T10:04:58;2.83;;;1.77;;
70545;SDS011;58098;51.680;5.134;2023-08-08T10:07:24;3.67;;;1.60;;
70545;SDS011;58098;51.680;5.134;2023-08-08T10:09:49;3.03;;;1.60;;
70545;SDS011;58098;51.680;5.134;2023-08-08T10:12:15;5.88;;;2.17;;
70545;SDS011;58098;51.680;5.134;2023-08-08T10:14:42;4.85;;;2.20;;
70545;SDS011;58098;51.680;5.134;2023-08-08T10:17:07;3.90;;;1.60;;
70545;SDS011;58098;51.680;5.134;2023-08-08T10:19:33;2.22;;;1.52;;
70545;SDS011;58098;51.680;5.134;2023-08-08T10:22:03;5.70;;;2.20;;
70545;SDS011;58098;51.680;5.134;2023-08-08T10:24:35;6.32;;;2.10;;
70545;SDS011;58098;51.680;5.134;2023-08-08T10:27:02;4.00;;;1.70;;
70545;SDS011;58098;51.680;5.134;2023-08-08T10:29:29;4.65;;;2.08;;
70545;SDS011;58098;51.680;5.134;2023-08-08T10:31:59;3.70;;;1.85;;
70545;SDS011;58098;51.680;5.134;2023-08-08T10:37:12;5.32;;;1.77;;
70545;SDS011;58098;51.680;5.134;2023-08-08T10:40:00;6.53;;;2.38;;
70545;SDS011;58098;51.680;5.134;2023-08-08T10:42:26;3.10;;;1.75;;
70545;SDS011;58098;51.680;5.134;2023-08-08T10:44:53;4.65;;;1.70;;
70545;SDS011;58098;51.680;5.134;2023-08-08T10:47:53;6.47;;;2.00;;
70545;SDS011;58098;51.680;5.134;2023-08-08T10:50:12;4.35;;;2.08;;
70545;SDS011;58098;51.680;5.134;2023-08-08T10:57:54;4.72;;;2.03;;
70545;SDS011;58098;51.680;5.134;2023-08-08T11:00:26;5.63;;;1.67;;
70545;SDS011;58098;51.680;5.134;2023-08-08T11:02:54;5.20;;;1.73;;
70545;SDS011;58098;51.680;5.134;2023-08-08T11:05:21;6.28;;;1.92;;
70545;SDS011;58098;51.680;5.134;2023-08-08T11:07:47;6.80;;;2.17;;
70545;SDS011;58098;51.680;5.134;2023-08-08T11:10:13;5.03;;;2.00;;
70545;SDS011;58098;51.680;5.134;2023-08-08T11:12:38;4.00;;;1.70;;
70545;SDS011;58098;51.680;5.134;2023-08-08T11:15:03;5.40;;;1.40;;
70545;SDS011;58098;51.680;5.134;2023-08-08T11:17:29;3.95;;;1.63;;
70545;SDS011;58098;51.680;5.134;2023-08-08T11:19:55;3.53;;;1.80;;
70545;SDS011;58098;51.680;5.134;2023-08-08T11:22:21;4.43;;;1.43;;
70545;SDS011;58098;51.680;5.134;2023-08-08T11:24:48;2.83;;;1.60;;
70545;SDS011;58098;51.680;5.134;2023-08-08T11:27:15;2.42;;;1.60;;
70545;SDS011;58098;51.680;5.134;2023-08-08T11:29:40;4.93;;;1.60;;
70545;SDS011;58098;51.680;5.134;2023-08-08T11:32:05;8.90;;;2.17;;
70545;SDS011;58098;51.680;5.134;2023-08-08T11:34:32;3.35;;;1.50;;
70545;SDS011;58098;51.680;5.134;2023-08-08T11:36:59;1.70;;;1.50;;
70545;SDS011;58098;51.680;5.134;2023-08-08T11:39:25;3.40;;;1.63;;
70545;SDS011;58098;51.680;5.134;2023-08-08T11:41:51;3.17;;;1.40;;
70545;SDS011;58098;51.680;5.134;2023-08-08T11:44:17;3.60;;;1.90;;
70545;SDS011;58098;51.680;5.134;2023-08-08T11:46:43;4.80;;;1.70;;
70545;SDS011;58098;51.680;5.134;2023-08-08T11:49:10;2.35;;;1.50;;
70545;SDS011;58098;51.680;5.134;2023-08-08T11:51:36;3.42;;;1.48;;
70545;SDS011;58098;51.680;5.134;2023-08-08T11:54:02;4.90;;;1.40;;
70545;SDS011;58098;51.680;5.134;2023-08-08T11:56:34;2.47;;;1.40;;
70545;SDS011;58098;51.680;5.134;2023-08-08T11:59:00;2.55;;;1.50;;
70545;SDS011;58098;51.680;5.134;2023-08-08T12:01:27;4.60;;;1.80;;
70545;SDS011;58098;51.680;5.134;2023-08-08T12:03:52;1.80;;;1.25;;
70545;SDS011;58098;51.680;5.134;2023-08-08T12:06:19;2.80;;;1.27;;
70545;SDS011;58098;51.680;5.134;2023-08-08T12:08:45;1.50;;;1.10;;
70545;SDS011;58098;51.680;5.134;2023-08-08T12:11:12;1.47;;;1.07;;
70545;SDS011;58098;51.680;5.134;2023-08-08T12:13:38;1.55;;;1.10;;
70545;SDS011;58098;51.680;5.134;2023-08-08T12:16:06;2.45;;;1.48;;
70545;SDS011;58098;51.680;5.134;2023-08-08T12:18:37;3.60;;;1.63;;
70545;SDS011;58098;51.680;5.134;2023-08-08T12:21:03;5.88;;;2.20;;
70545;SDS011;58098;51.680;5.134;2023-08-08T12:23:30;4.23;;;1.60;;
70545;SDS011;58098;51.680;5.134;2023-08-08T12:25:56;2.50;;;1.52;;
70545;SDS011;58098;51.680;5.134;2023-08-08T12:28:23;2.03;;;1.20;;
70545;SDS011;58098;51.680;5.134;2023-08-08T12:30:48;3.08;;;1.40;;
70545;SDS011;58098;51.680;5.134;2023-08-08T12:33:14;4.50;;;1.30;;
70545;SDS011;58098;51.680;5.134;2023-08-08T12:35:39;1.17;;;0.90;;
70545;SDS011;58098;51.680;5.134;2023-08-08T12:38:04;1.83;;;0.97;;
70545;SDS011;58098;51.680;5.134;2023-08-08T12:40:30;4.80;;;1.60;;
70545;SDS011;58098;51.680;5.134;2023-08-08T12:42:55;1.57;;;1.13;;
70545;SDS011;58098;51.680;5.134;2023-08-08T12:45:20;2.15;;;1.10;;
70545;SDS011;58098;51.680;5.134;2023-08-08T12:47:46;3.90;;;1.27;;
70545;SDS011;58098;51.680;5.134;2023-08-08T12:50:11;3.43;;;1.00;;
70545;SDS011;58098;51.680;5.134;2023-08-08T12:52:37;2.77;;;1.30;;
70545;SDS011;58098;51.680;5.134;2023-08-08T12:55:03;1.27;;;1.10;;
70545;SDS011;58098;51.680;5.134;2023-08-08T12:57:29;1.67;;;1.45;;
70545;SDS011;58098;51.680;5.134;2023-08-08T12:59:54;2.10;;;1.47;;
70545;SDS011;58098;51.680;5.134;2023-08-08T13:02:20;1.67;;;1.20;;
70545;SDS011;58098;51.680;5.134;2023-08-08T13:04:45;4.30;;;1.30;;
70545;SDS011;58098;51.680;5.134;2023-08-08T13:07:11;2.93;;;1.33;;
70545;SDS011;58098;51.680;5.134;2023-08-08T13:09:37;2.92;;;1.45;;
70545;SDS011;58098;51.680;5.134;2023-08-08T13:12:03;2.55;;;1.40;;
70545;SDS011;58098;51.680;5.134;2023-08-08T13:14:28;3.23;;;1.30;;
70545;SDS011;58098;51.680;5.134;2023-08-08T13:16:54;2.47;;;1.40;;
70545;SDS011;58098;51.680;5.134;2023-08-08T13:19:19;2.93;;;1.30;;
70545;SDS011;58098;51.680;5.134;2023-08-08T13:21:46;4.15;;;1.30;;
70545;SDS011;58098;51.680;5.134;2023-08-08T13:24:11;5.30;;;1.30;;
70545;SDS011;58098;51.680;5.134;2023-08-08T13:26:38;3.65;;;1.33;;
70545;SDS011;58098;51.680;5.134;2023-08-08T13:29:04;2.55;;;1.45;;
70545;SDS011;58098;51.680;5.134;2023-08-08T13:31:29;2.77;;;1.60;;
70545;SDS011;58098;51.680;5.134;2023-08-08T13:33:55;2.53;;;1.33;;
70545;SDS011;58098;51.680;5.134;2023-08-08T13:36:20;2.37;;;1.50;;
70545;SDS011;58098;51.680;5.134;2023-08-08T13:38:45;6.90;;;1.40;;
70545;SDS011;58098;51.680;5.134;2023-08-08T13:41:11;3.40;;;1.60;;
70545;SDS011;58098;51.680;5.134;2023-08-08T13:43:36;2.07;;;1.60;;
70545;SDS011;58098;51.680;5.134;2023-08-08T13:46:01;4.30;;;1.60;;
70545;SDS011;58098;51.680;5.134;2023-08-08T13:48:29;5.15;;;1.60;;
70545;SDS011;58098;51.680;5.134;2023-08-08T13:50:54;1.87;;;1.27;;
70545;SDS011;58098;51.680;5.134;2023-08-08T13:53:19;3.17;;;1.50;;
70545;SDS011;58098;51.680;5.134;2023-08-08T13:55:45;2.87;;;1.33;;
70545;SDS011;58098;51.680;5.134;2023-08-08T13:58:10;2.17;;;1.60;;
70545;SDS011;58098;51.680;5.134;2023-08-08T14:00:35;4.43;;;1.50;;
70545;SDS011;58098;51.680;5.134;2023-08-08T14:03:01;4.93;;;1.30;;
70545;SDS011;58098;51.680;5.134;2023-08-08T14:05:27;5.32;;;1.70;;
70545;SDS011;58098;51.680;5.134;2023-08-08T14:07:53;2.90;;;1.50;;
70545;SDS011;58098;51.680;5.134;2023-08-08T14:10:19;5.00;;;1.33;;
70545;SDS011;58098;51.680;5.134;2023-08-08T14:12:45;4.27;;;1.60;;
70545;SDS011;58098;51.680;5.134;2023-08-08T14:15:10;3.70;;;1.50;;
70545;SDS011;58098;51.680;5.134;2023-08-08T14:17:35;5.03;;;1.50;;
70545;SDS011;58098;51.680;5.134;2023-08-08T14:20:01;4.37;;;1.40;;
70545;SDS011;58098;51.680;5.134;2023-08-08T14:22:27;2.58;;;1.65;;
70545;SDS011;58098;51.680;5.134;2023-08-08T14:24:52;2.20;;;1.27;;
70545;SDS011;58098;51.680;5.134;2023-08-08T14:27:18;4.77;;;1.60;;
70545;SDS011;58098;51.680;5.134;2023-08-08T14:29:43;2.90;;;1.90;;
70545;SDS011;58098;51.680;5.134;2023-08-08T14:32:08;3.60;;;1.90;;
70545;SDS011;58098;51.680;5.134;2023-08-08T14:34:35;2.88;;;1.50;;
70545;SDS011;58098;51.680;5.134;2023-08-08T14:37:03;4.68;;;1.77;;
70545;SDS011;58098;51.680;5.134;2023-08-08T14:39:28;3.10;;;1.47;;
70545;SDS011;58098;51.680;5.134;2023-08-08T14:41:54;3.20;;;1.73;;
70545;SDS011;58098;51.680;5.134;2023-08-08T14:44:21;3.42;;;1.95;;